sensor_id;sensor_type;location;lat;lon;timestamp;P1;durP1;ratioP1;P2;durP2;ratioP2
8825;SDS011;4449;50.872;4.714;2023-11-19T00:03:51;3.22;;;3.03;;
8825;SDS011;4449;50.872;4.714;2023-11-19T00:06:19;3.63;;;3.00;;
8825;SDS011;4449;50.872;4.714;2023-11-19T00:08:47;5.38;;;3.20;;
8825;SDS011;4449;50.872;4.714;2023-11-19T00:11:15;5.28;;;3.10;;
8825;SDS011;4449;50.872;4.714;2023-11-19T00:13:43;5.32;;;3.00;;
8825;SDS011;4449;50.872;4.714;2023-11-19T00:16:11;6.60;;;3.47;;
8825;SDS011;4449;50.872;4.714;2023-11-19T00:18:39;6.40;;;3.30;;
8825;SDS011;4449;50.872;4.714;2023-11-19T00:21:08;7.72;;;3.40;;
8825;SDS011;4449;50.872;4.714;2023-11-19T00:23:36;7.68;;;3.28;;
8825;SDS011;4449;50.872;4.714;2023-11-19T00:26:04;7.28;;;3.72;;
8825;SDS011;4449;50.872;4.714;2023-11-19T00:28:32;7.30;;;3.30;;
8825;SDS011;4449;50.872;4.714;2023-11-19T00:31:00;7.63;;;3.70;;
8825;SDS011;4449;50.872;4.714;2023-11-19T00:33:28;8.77;;;3.72;;
8825;SDS011;4449;50.872;4.714;2023-11-19T00:35:56;7.22;;;3.22;;
8825;SDS011;4449;50.872;4.714;2023-11-19T00:38:25;8.20;;;3.55;;
8825;SDS011;4449;50.872;4.714;2023-11-19T00:40:53;10.77;;;3.65;;
8825;SDS011;4449;50.872;4.714;2023-11-19T00:43:21;8.07;;;3.63;;
8825;SDS011;4449;50.872;4.714;2023-11-19T00:45:49;10.15;;;3.95;;
8825;SDS011;4449;50.872;4.714;2023-11-19T00:48:17;9.95;;;3.65;;
8825;SDS011;4449;50.872;4.714;2023-11-19T00:50:44;8.57;;;3.90;;
8825;SDS011;4449;50.872;4.714;2023-11-19T00:53:12;9.98;;;4.10;;
8825;SDS011;4449;50.872;4.714;2023-11-19T00:55:41;8.02;;;3.42;;
8825;SDS011;4449;50.872;4.714;2023-11-19T00:58:09;8.70;;;3.67;;
8825;SDS011;4449;50.872;4.714;2023-11-19T01:00:36;8.60;;;3.80;;
8825;SDS011;4449;50.872;4.714;2023-11-19T01:03:05;11.70;;;3.78;;
8825;SDS011;4449;50.872;4.714;2023-11-19T01:05:33;9.35;;;4.03;;
8825;SDS011;4449;50.872;4.714;2023-11-19T01:08:00;9.27;;;4.10;;
8825;SDS011;4449;50.872;4.714;2023-11-19T01:10:30;10.50;;;3.63;;
8825;SDS011;4449;50.872;4.714;2023-11-19T01:12:59;9.23;;;4.05;;
8825;SDS011;4449;50.872;4.714;2023-11-19T01:15:26;11.00;;;4.32;;
8825;SDS011;4449;50.872;4.714;2023-11-19T01:17:54;12.55;;;3.75;;
8825;SDS011;4449;50.872;4.714;2023-11-19T01:20:22;10.50;;;3.77;;
8825;SDS011;4449;50.872;4.714;2023-11-19T01:22:50;12.70;;;3.90;;
8825;SDS011;4449;50.872;4.714;2023-11-19T01:25:17;9.98;;;3.92;;
8825;SDS011;4449;50.872;4.714;2023-11-19T01:27:45;11.85;;;3.78;;
8825;SDS011;4449;50.872;4.714;2023-11-19T01:30:14;10.57;;;3.75;;
8825;SDS011;4449;50.872;4.714;2023-11-19T01:32:42;14.77;;;3.75;;
8825;SDS011;4449;50.872;4.714;2023-11-19T01:35:10;13.90;;;4.47;;
8825;SDS011;4449;50.872;4.714;2023-11-19T01:37:38;15.05;;;4.00;;
8825;SDS011;4449;50.872;4.714;2023-11-19T01:40:06;13.55;;;4.40;;
8825;SDS011;4449;50.872;4.714;2023-11-19T01:42:36;16.27;;;4.20;;
8825;SDS011;4449;50.872;4.714;2023-11-19T01:45:04;12.07;;;4.22;;
8825;SDS011;4449;50.872;4.714;2023-11-19T01:47:35;12.30;;;3.78;;
8825;SDS011;4449;50.872;4.714;2023-11-19T01:50:03;16.10;;;3.90;;
8825;SDS011;4449;50.872;4.714;2023-11-19T01:52:33;13.38;;;4.97;;
8825;SDS011;4449;50.872;4.714;2023-11-19T01:55:02;13.10;;;4.53;;
8825;SDS011;4449;50.872;4.714;2023-11-19T01:57:30;14.75;;;3.90;;
8825;SDS011;4449;50.872;4.714;2023-11-19T01:59:57;11.03;;;3.47;;
8825;SDS011;4449;50.872;4.714;2023-11-19T02:02:26;15.82;;;4.13;;
8825;SDS011;4449;50.872;4.714;2023-11-19T02:04:55;11.80;;;3.70;;
8825;SDS011;4449;50.872;4.714;2023-11-19T02:07:23;13.80;;;4.00;;
8825;SDS011;4449;50.872;4.714;2023-11-19T02:09:52;12.32;;;3.97;;
8825;SDS011;4449;50.872;4.714;2023-11-19T02:12:19;16.08;;;4.20;;
8825;SDS011;4449;50.872;4.714;2023-11-19T02:14:47;10.02;;;4.05;;
8825;SDS011;4449;50.872;4.714;2023-11-19T02:17:27;13.93;;;4.60;;
8825;SDS011;4449;50.872;4.714;2023-11-19T02:19:58;13.95;;;4.68;;
8825;SDS011;4449;50.872;4.714;2023-11-19T02:22:25;12.15;;;4.40;;
8825;SDS011;4449;50.872;4.714;2023-11-19T02:24:55;15.27;;;4.25;;
8825;SDS011;4449;50.872;4.714;2023-11-19T02:27:26;13.80;;;4.47;;
8825;SDS011;4449;50.872;4.714;2023-11-19T02:29:57;15.77;;;4.50;;
8825;SDS011;4449;50.872;4.714;2023-11-19T02:32:27;15.15;;;4.65;;
8825;SDS011;4449;50.872;4.714;2023-11-19T02:34:56;15.07;;;4.83;;
8825;SDS011;4449;50.872;4.714;2023-11-19T02:37:24;14.50;;;4.57;;
8825;SDS011;4449;50.872;4.714;2023-11-19T02:39:53;11.97;;;4.23;;
8825;SDS011;4449;50.872;4.714;2023-11-19T02:42:21;16.90;;;4.88;;
8825;SDS011;4449;50.872;4.714;2023-11-19T02:44:49;17.88;;;5.05;;
8825;SDS011;4449;50.872;4.714;2023-11-19T02:47:18;17.27;;;4.57;;
8825;SDS011;4449;50.872;4.714;2023-11-19T02:49:49;19.98;;;4.50;;
8825;SDS011;4449;50.872;4.714;2023-11-19T02:52:18;14.48;;;4.45;;
8825;SDS011;4449;50.872;4.714;2023-11-19T02:54:46;15.93;;;4.15;;
8825;SDS011;4449;50.872;4.714;2023-11-19T02:57:13;18.08;;;5.07;;
8825;SDS011;4449;50.872;4.714;2023-11-19T02:59:44;15.65;;;4.93;;
8825;SDS011;4449;50.872;4.714;2023-11-19T03:02:12;13.95;;;4.35;;
8825;SDS011;4449;50.872;4.714;2023-11-19T03:04:42;17.42;;;4.53;;
8825;SDS011;4449;50.872;4.714;2023-11-19T03:07:11;13.73;;;4.18;;
8825;SDS011;4449;50.872;4.714;2023-11-19T03:09:38;13.60;;;4.00;;
8825;SDS011;4449;50.872;4.714;2023-11-19T03:12:07;12.70;;;4.80;;
8825;SDS011;4449;50.872;4.714;2023-11-19T03:14:34;15.30;;;4.90;;
8825;SDS011;4449;50.872;4.714;2023-11-19T03:17:03;15.20;;;4.43;;
8825;SDS011;4449;50.872;4.714;2023-11-19T03:19:30;19.52;;;4.90;;
8825;SDS011;4449;50.872;4.714;2023-11-19T03:22:00;16.45;;;4.35;;
8825;SDS011;4449;50.872;4.714;2023-11-19T03:24:28;24.50;;;14.02;;
8825;SDS011;4449;50.872;4.714;2023-11-19T03:26:56;13.00;;;4.30;;
8825;SDS011;4449;50.872;4.714;2023-11-19T03:29:24;15.20;;;4.82;;
8825;SDS011;4449;50.872;4.714;2023-11-19T03:31:52;14.75;;;4.50;;
8825;SDS011;4449;50.872;4.714;2023-11-19T03:34:19;14.23;;;4.75;;
8825;SDS011;4449;50.872;4.714;2023-11-19T03:36:47;14.93;;;4.75;;
8825;SDS011;4449;50.872;4.714;2023-11-19T03:39:16;15.50;;;4.60;;
8825;SDS011;4449;50.872;4.714;2023-11-19T03:41:45;18.25;;;5.15;;
8825;SDS011;4449;50.872;4.714;2023-11-19T03:44:13;16.15;;;4.85;;
8825;SDS011;4449;50.872;4.714;2023-11-19T03:46:42;14.35;;;4.32;;
8825;SDS011;4449;50.872;4.714;2023-11-19T03:49:09;17.50;;;5.03;;
8825;SDS011;4449;50.872;4.714;2023-11-19T03:51:37;17.00;;;4.63;;
8825;SDS011;4449;50.872;4.714;2023-11-19T03:54:06;16.02;;;4.43;;
8825;SDS011;4449;50.872;4.714;2023-11-19T03:56:35;17.50;;;4.57;;
8825;SDS011;4449;50.872;4.714;2023-11-19T03:59:03;16.60;;;4.30;;
8825;SDS011;4449;50.872;4.714;2023-11-19T04:01:30;14.45;;;4.80;;
8825;SDS011;4449;50.872;4.714;2023-11-19T04:03:57;20.38;;;4.88;;
8825;SDS011;4449;50.872;4.714;2023-11-19T04:06:25;16.40;;;4.60;;
8825;SDS011;4449;50.872;4.714;2023-11-19T04:08:53;15.68;;;4.55;;
8825;SDS011;4449;50.872;4.714;2023-11-19T04:11:20;15.55;;;4.10;;
8825;SDS011;4449;50.872;4.714;2023-11-19T04:13:49;15.25;;;4.97;;
8825;SDS011;4449;50.872;4.714;2023-11-19T04:16:17;16.63;;;4.70;;
8825;SDS011;4449;50.872;4.714;2023-11-19T04:18:45;17.75;;;4.32;;
8825;SDS011;4449;50.872;4.714;2023-11-19T04:21:13;17.83;;;5.27;;
8825;SDS011;4449;50.872;4.714;2023-11-19T04:23:41;19.42;;;5.20;;
8825;SDS011;4449;50.872;4.714;2023-11-19T04:26:09;25.90;;;5.47;;
8825;SDS011;4449;50.872;4.714;2023-11-19T04:28:36;18.70;;;5.25;;
8825;SDS011;4449;50.872;4.714;2023-11-19T04:31:06;16.73;;;4.80;;
8825;SDS011;4449;50.872;4.714;2023-11-19T04:33:34;22.50;;;5.70;;
8825;SDS011;4449;50.872;4.714;2023-11-19T04:36:02;18.75;;;5.20;;
8825;SDS011;4449;50.872;4.714;2023-11-19T04:38:30;16.67;;;4.53;;
8825;SDS011;4449;50.872;4.714;2023-11-19T04:40:58;16.05;;;4.57;;
8825;SDS011;4449;50.872;4.714;2023-11-19T04:43:25;18.58;;;5.50;;
8825;SDS011;4449;50.872;4.714;2023-11-19T04:45:53;17.65;;;4.82;;
8825;SDS011;4449;50.872;4.714;2023-11-19T04:48:22;19.92;;;5.47;;
8825;SDS011;4449;50.872;4.714;2023-11-19T04:50:50;18.88;;;5.43;;
8825;SDS011;4449;50.872;4.714;2023-11-19T04:53:18;19.52;;;5.25;;
8825;SDS011;4449;50.872;4.714;2023-11-19T04:55:46;23.83;;;6.03;;
8825;SDS011;4449;50.872;4.714;2023-11-19T04:58:13;25.58;;;5.65;;
8825;SDS011;4449;50.872;4.714;2023-11-19T05:00:41;22.98;;;5.53;;
8825;SDS011;4449;50.872;4.714;2023-11-19T05:03:09;21.75;;;5.50;;
8825;SDS011;4449;50.872;4.714;2023-11-19T05:05:38;19.92;;;5.93;;
8825;SDS011;4449;50.872;4.714;2023-11-19T05:08:06;23.25;;;5.88;;
8825;SDS011;4449;50.872;4.714;2023-11-19T05:10:33;20.53;;;5.63;;
8825;SDS011;4449;50.872;4.714;2023-11-19T05:13:02;23.43;;;5.90;;
8825;SDS011;4449;50.872;4.714;2023-11-19T05:15:30;21.45;;;5.72;;
8825;SDS011;4449;50.872;4.714;2023-11-19T05:17:58;23.77;;;5.32;;
8825;SDS011;4449;50.872;4.714;2023-11-19T05:20:26;22.70;;;6.32;;
8825;SDS011;4449;50.872;4.714;2023-11-19T05:22:55;23.52;;;6.45;;
8825;SDS011;4449;50.872;4.714;2023-11-19T05:25:25;23.60;;;5.75;;
8825;SDS011;4449;50.872;4.714;2023-11-19T05:27:53;21.20;;;5.40;;
8825;SDS011;4449;50.872;4.714;2023-11-19T05:30:21;20.77;;;5.82;;
8825;SDS011;4449;50.872;4.714;2023-11-19T05:32:48;23.25;;;5.70;;
8825;SDS011;4449;50.872;4.714;2023-11-19T05:35:16;19.95;;;5.80;;
8825;SDS011;4449;50.872;4.714;2023-11-19T05:37:44;20.00;;;5.50;;
8825;SDS011;4449;50.872;4.714;2023-11-19T05:40:13;21.25;;;5.18;;
8825;SDS011;4449;50.872;4.714;2023-11-19T05:42:41;17.80;;;5.00;;
8825;SDS011;4449;50.872;4.714;2023-11-19T05:45:10;24.27;;;5.90;;
8825;SDS011;4449;50.872;4.714;2023-11-19T05:47:38;25.08;;;5.60;;
8825;SDS011;4449;50.872;4.714;2023-11-19T05:50:06;21.48;;;5.43;;
8825;SDS011;4449;50.872;4.714;2023-11-19T05:52:35;23.75;;;5.72;;
8825;SDS011;4449;50.872;4.714;2023-11-19T05:55:03;23.75;;;5.28;;
8825;SDS011;4449;50.872;4.714;2023-11-19T05:57:37;25.80;;;5.85;;
8825;SDS011;4449;50.872;4.714;2023-11-19T06:00:05;21.23;;;5.53;;
8825;SDS011;4449;50.872;4.714;2023-11-19T06:02:36;22.92;;;5.85;;
8825;SDS011;4449;50.872;4.714;2023-11-19T06:05:04;23.77;;;6.55;;
8825;SDS011;4449;50.872;4.714;2023-11-19T06:07:32;26.95;;;6.38;;
8825;SDS011;4449;50.872;4.714;2023-11-19T06:10:00;22.65;;;6.45;;
8825;SDS011;4449;50.872;4.714;2023-11-19T06:12:28;27.83;;;6.07;;
8825;SDS011;4449;50.872;4.714;2023-11-19T06:14:58;26.42;;;6.38;;
8825;SDS011;4449;50.872;4.714;2023-11-19T06:17:27;19.17;;;6.17;;
8825;SDS011;4449;50.872;4.714;2023-11-19T06:19:54;25.73;;;6.05;;
8825;SDS011;4449;50.872;4.714;2023-11-19T06:22:22;26.60;;;6.72;;
8825;SDS011;4449;50.872;4.714;2023-11-19T06:24:50;22.63;;;6.25;;
8825;SDS011;4449;50.872;4.714;2023-11-19T06:27:17;23.25;;;6.40;;
8825;SDS011;4449;50.872;4.714;2023-11-19T06:29:45;27.43;;;6.67;;
8825;SDS011;4449;50.872;4.714;2023-11-19T06:32:14;26.63;;;5.75;;
8825;SDS011;4449;50.872;4.714;2023-11-19T06:34:42;29.30;;;6.67;;
8825;SDS011;4449;50.872;4.714;2023-11-19T06:37:10;22.15;;;6.20;;
8825;SDS011;4449;50.872;4.714;2023-11-19T06:39:37;22.75;;;6.22;;
8825;SDS011;4449;50.872;4.714;2023-11-19T06:42:06;20.27;;;5.93;;
8825;SDS011;4449;50.872;4.714;2023-11-19T06:44:33;23.52;;;5.88;;
8825;SDS011;4449;50.872;4.714;2023-11-19T06:47:01;23.25;;;5.82;;
8825;SDS011;4449;50.872;4.714;2023-11-19T06:49:30;20.15;;;5.78;;
8825;SDS011;4449;50.872;4.714;2023-11-19T06:51:58;21.48;;;5.82;;
8825;SDS011;4449;50.872;4.714;2023-11-19T06:54:26;22.23;;;5.78;;
8825;SDS011;4449;50.872;4.714;2023-11-19T06:56:54;21.98;;;5.57;;
8825;SDS011;4449;50.872;4.714;2023-11-19T06:59:22;17.48;;;4.55;;
8825;SDS011;4449;50.872;4.714;2023-11-19T07:01:50;22.05;;;5.53;;
8825;SDS011;4449;50.872;4.714;2023-11-19T07:04:18;21.38;;;5.85;;
8825;SDS011;4449;50.872;4.714;2023-11-19T07:06:47;25.20;;;5.35;;
8825;SDS011;4449;50.872;4.714;2023-11-19T07:09:15;20.98;;;6.07;;
8825;SDS011;4449;50.872;4.714;2023-11-19T07:11:44;24.83;;;6.07;;
8825;SDS011;4449;50.872;4.714;2023-11-19T07:14:12;26.05;;;6.07;;
8825;SDS011;4449;50.872;4.714;2023-11-19T07:16:40;21.75;;;5.35;;
8825;SDS011;4449;50.872;4.714;2023-11-19T07:19:07;19.35;;;5.18;;
8825;SDS011;4449;50.872;4.714;2023-11-19T07:21:35;25.02;;;5.85;;
8825;SDS011;4449;50.872;4.714;2023-11-19T07:24:06;23.98;;;6.32;;
8825;SDS011;4449;50.872;4.714;2023-11-19T07:26:34;21.17;;;5.70;;
8825;SDS011;4449;50.872;4.714;2023-11-19T07:29:02;25.25;;;6.05;;
8825;SDS011;4449;50.872;4.714;2023-11-19T07:31:32;25.50;;;5.82;;
8825;SDS011;4449;50.872;4.714;2023-11-19T07:34:00;22.80;;;6.73;;
8825;SDS011;4449;50.872;4.714;2023-11-19T07:36:28;25.50;;;6.40;;
8825;SDS011;4449;50.872;4.714;2023-11-19T07:38:57;23.00;;;5.80;;
8825;SDS011;4449;50.872;4.714;2023-11-19T07:41:26;22.98;;;6.25;;
8825;SDS011;4449;50.872;4.714;2023-11-19T07:43:54;25.77;;;6.18;;
8825;SDS011;4449;50.872;4.714;2023-11-19T07:46:22;24.02;;;5.85;;
8825;SDS011;4449;50.872;4.714;2023-11-19T07:48:50;21.92;;;5.78;;
8825;SDS011;4449;50.872;4.714;2023-11-19T07:51:18;23.40;;;6.45;;
8825;SDS011;4449;50.872;4.714;2023-11-19T07:53:47;22.43;;;6.87;;
8825;SDS011;4449;50.872;4.714;2023-11-19T07:56:14;24.88;;;6.38;;
8825;SDS011;4449;50.872;4.714;2023-11-19T07:58:43;26.35;;;6.50;;
8825;SDS011;4449;50.872;4.714;2023-11-19T08:01:11;24.58;;;6.18;;
8825;SDS011;4449;50.872;4.714;2023-11-19T08:03:39;25.80;;;7.03;;
8825;SDS011;4449;50.872;4.714;2023-11-19T08:06:07;22.13;;;6.10;;
8825;SDS011;4449;50.872;4.714;2023-11-19T08:08:34;26.23;;;6.47;;
8825;SDS011;4449;50.872;4.714;2023-11-19T08:11:03;21.13;;;6.00;;
8825;SDS011;4449;50.872;4.714;2023-11-19T08:13:31;22.77;;;6.68;;
8825;SDS011;4449;50.872;4.714;2023-11-19T08:16:00;26.67;;;6.15;;
8825;SDS011;4449;50.872;4.714;2023-11-19T08:18:28;24.38;;;6.00;;
8825;SDS011;4449;50.872;4.714;2023-11-19T08:20:56;21.70;;;6.57;;
8825;SDS011;4449;50.872;4.714;2023-11-19T08:23:26;20.23;;;6.20;;
8825;SDS011;4449;50.872;4.714;2023-11-19T08:25:53;26.88;;;6.38;;
8825;SDS011;4449;50.872;4.714;2023-11-19T08:28:21;24.85;;;5.95;;
8825;SDS011;4449;50.872;4.714;2023-11-19T08:30:49;19.15;;;6.13;;
8825;SDS011;4449;50.872;4.714;2023-11-19T08:33:18;22.17;;;6.50;;
8825;SDS011;4449;50.872;4.714;2023-11-19T08:35:47;22.65;;;6.32;;
8825;SDS011;4449;50.872;4.714;2023-11-19T08:38:15;18.80;;;6.18;;
8825;SDS011;4449;50.872;4.714;2023-11-19T08:40:43;20.88;;;5.50;;
8825;SDS011;4449;50.872;4.714;2023-11-19T08:43:11;21.08;;;6.35;;
8825;SDS011;4449;50.872;4.714;2023-11-19T08:45:39;21.60;;;5.95;;
8825;SDS011;4449;50.872;4.714;2023-11-19T08:48:06;17.75;;;5.80;;
8825;SDS011;4449;50.872;4.714;2023-11-19T08:50:35;19.38;;;6.05;;
8825;SDS011;4449;50.872;4.714;2023-11-19T08:53:03;24.97;;;6.53;;
8825;SDS011;4449;50.872;4.714;2023-11-19T08:55:32;18.42;;;6.32;;
8825;SDS011;4449;50.872;4.714;2023-11-19T08:57:59;20.88;;;6.32;;
8825;SDS011;4449;50.872;4.714;2023-11-19T09:00:27;21.17;;;5.70;;
8825;SDS011;4449;50.872;4.714;2023-11-19T09:02:55;21.73;;;6.17;;
8825;SDS011;4449;50.872;4.714;2023-11-19T09:05:23;22.10;;;5.97;;
8825;SDS011;4449;50.872;4.714;2023-11-19T09:07:52;22.37;;;6.27;;
8825;SDS011;4449;50.872;4.714;2023-11-19T09:10:20;23.35;;;6.07;;
8825;SDS011;4449;50.872;4.714;2023-11-19T09:12:47;22.02;;;5.88;;
8825;SDS011;4449;50.872;4.714;2023-11-19T09:15:15;19.83;;;5.70;;
8825;SDS011;4449;50.872;4.714;2023-11-19T09:17:43;22.13;;;5.75;;
8825;SDS011;4449;50.872;4.714;2023-11-19T09:20:11;22.10;;;5.72;;
8825;SDS011;4449;50.872;4.714;2023-11-19T09:34:51;23.42;;;6.15;;
8825;SDS011;4449;50.872;4.714;2023-11-19T09:37:18;20.98;;;6.03;;
8825;SDS011;4449;50.872;4.714;2023-11-19T09:39:46;19.75;;;5.75;;
8825;SDS011;4449;50.872;4.714;2023-11-19T09:42:14;18.00;;;5.43;;
8825;SDS011;4449;50.872;4.714;2023-11-19T09:44:43;16.58;;;5.32;;
8825;SDS011;4449;50.872;4.714;2023-11-19T09:47:11;17.48;;;5.22;;
8825;SDS011;4449;50.872;4.714;2023-11-19T09:49:39;19.30;;;5.55;;
8825;SDS011;4449;50.872;4.714;2023-11-19T09:52:08;15.23;;;5.03;;
8825;SDS011;4449;50.872;4.714;2023-11-19T09:54:36;15.52;;;4.85;;
8825;SDS011;4449;50.872;4.714;2023-11-19T09:57:03;16.63;;;4.80;;
8825;SDS011;4449;50.872;4.714;2023-11-19T09:59:33;16.42;;;5.22;;
8825;SDS011;4449;50.872;4.714;2023-11-19T10:02:00;15.40;;;5.00;;
8825;SDS011;4449;50.872;4.714;2023-11-19T10:04:30;18.95;;;5.50;;
8825;SDS011;4449;50.872;4.714;2023-11-19T10:06:57;19.88;;;5.20;;
8825;SDS011;4449;50.872;4.714;2023-11-19T10:09:27;21.67;;;5.50;;
8825;SDS011;4449;50.872;4.714;2023-11-19T10:11:54;19.63;;;5.40;;
8825;SDS011;4449;50.872;4.714;2023-11-19T10:14:23;15.60;;;5.00;;
8825;SDS011;4449;50.872;4.714;2023-11-19T10:16:50;17.00;;;5.07;;
8825;SDS011;4449;50.872;4.714;2023-11-19T10:19:18;16.60;;;4.95;;
8825;SDS011;4449;50.872;4.714;2023-11-19T10:21:47;12.70;;;4.47;;
8825;SDS011;4449;50.872;4.714;2023-11-19T10:24:14;16.67;;;5.03;;
8825;SDS011;4449;50.872;4.714;2023-11-19T10:26:43;19.52;;;5.13;;
8825;SDS011;4449;50.872;4.714;2023-11-19T10:29:12;19.77;;;5.15;;
8825;SDS011;4449;50.872;4.714;2023-11-19T10:31:40;17.27;;;5.33;;
8825;SDS011;4449;50.872;4.714;2023-11-19T10:34:23;18.52;;;5.10;;
8825;SDS011;4449;50.872;4.714;2023-11-19T10:36:51;17.98;;;4.72;;
8825;SDS011;4449;50.872;4.714;2023-11-19T10:39:19;18.58;;;5.35;;
8825;SDS011;4449;50.872;4.714;2023-11-19T10:41:50;17.55;;;5.15;;
8825;SDS011;4449;50.872;4.714;2023-11-19T10:47:01;21.58;;;6.03;;
8825;SDS011;4449;50.872;4.714;2023-11-19T10:49:29;19.45;;;5.18;;
8825;SDS011;4449;50.872;4.714;2023-11-19T10:51:57;19.23;;;5.32;;
8825;SDS011;4449;50.872;4.714;2023-11-19T10:54:25;17.75;;;5.70;;
8825;SDS011;4449;50.872;4.714;2023-11-19T10:56:59;22.87;;;5.00;;
8825;SDS011;4449;50.872;4.714;2023-11-19T10:59:28;17.88;;;4.78;;
8825;SDS011;4449;50.872;4.714;2023-11-19T11:01:57;16.45;;;4.65;;
8825;SDS011;4449;50.872;4.714;2023-11-19T11:04:25;20.08;;;5.43;;
8825;SDS011;4449;50.872;4.714;2023-11-19T11:06:53;15.23;;;4.78;;
8825;SDS011;4449;50.872;4.714;2023-11-19T11:09:23;16.88;;;4.80;;
8825;SDS011;4449;50.872;4.714;2023-11-19T11:11:53;13.38;;;4.47;;
8825;SDS011;4449;50.872;4.714;2023-11-19T11:14:24;14.40;;;4.53;;
8825;SDS011;4449;50.872;4.714;2023-11-19T11:16:51;14.90;;;4.75;;
8825;SDS011;4449;50.872;4.714;2023-11-19T11:19:20;15.05;;;4.57;;
8825;SDS011;4449;50.872;4.714;2023-11-19T12:20:01;20.13;;;5.53;;
8825;SDS011;4449;50.872;4.714;2023-11-19T12:22:29;19.20;;;5.10;;
8825;SDS011;4449;50.872;4.714;2023-11-19T12:24:57;15.02;;;4.70;;
8825;SDS011;4449;50.872;4.714;2023-11-19T12:27:25;14.52;;;4.50;;
8825;SDS011;4449;50.872;4.714;2023-11-19T12:29:53;15.70;;;4.80;;
8825;SDS011;4449;50.872;4.714;2023-11-19T12:32:22;13.27;;;4.47;;
8825;SDS011;4449;50.872;4.714;2023-11-19T12:34:50;14.63;;;4.55;;
8825;SDS011;4449;50.872;4.714;2023-11-19T12:37:19;13.75;;;3.88;;
8825;SDS011;4449;50.872;4.714;2023-11-19T12:39:47;12.35;;;4.97;;
8825;SDS011;4449;50.872;4.714;2023-11-19T12:42:14;15.57;;;4.32;;
8825;SDS011;4449;50.872;4.714;2023-11-19T12:44:53;13.93;;;4.53;;
8825;SDS011;4449;50.872;4.714;2023-11-19T12:47:22;13.88;;;4.53;;
8825;SDS011;4449;50.872;4.714;2023-11-19T12:49:55;14.45;;;4.53;;
8825;SDS011;4449;50.872;4.714;2023-11-19T12:52:24;17.52;;;4.78;;
8825;SDS011;4449;50.872;4.714;2023-11-19T12:54:52;16.80;;;4.95;;
8825;SDS011;4449;50.872;4.714;2023-11-19T12:57:20;14.93;;;5.15;;
8825;SDS011;4449;50.872;4.714;2023-11-19T12:59:54;13.40;;;4.72;;
8825;SDS011;4449;50.872;4.714;2023-11-19T13:02:22;16.83;;;5.03;;
8825;SDS011;4449;50.872;4.714;2023-11-19T13:04:50;16.52;;;5.20;;
8825;SDS011;4449;50.872;4.714;2023-11-19T13:07:20;17.20;;;5.55;;
8825;SDS011;4449;50.872;4.714;2023-11-19T13:09:49;18.90;;;5.07;;
8825;SDS011;4449;50.872;4.714;2023-11-19T13:12:23;17.98;;;4.93;;
8825;SDS011;4449;50.872;4.714;2023-11-19T13:14:50;22.45;;;6.20;;
8825;SDS011;4449;50.872;4.714;2023-11-19T13:17:18;16.20;;;5.53;;
8825;SDS011;4449;50.872;4.714;2023-11-19T13:19:47;17.13;;;5.43;;
8825;SDS011;4449;50.872;4.714;2023-11-19T13:22:16;20.45;;;5.32;;
8825;SDS011;4449;50.872;4.714;2023-11-19T13:24:43;15.93;;;5.18;;
8825;SDS011;4449;50.872;4.714;2023-11-19T13:27:13;18.33;;;5.00;;
8825;SDS011;4449;50.872;4.714;2023-11-19T13:29:40;19.35;;;5.18;;
8825;SDS011;4449;50.872;4.714;2023-11-19T13:32:08;15.27;;;5.10;;
8825;SDS011;4449;50.872;4.714;2023-11-19T13:34:35;16.27;;;5.20;;
8825;SDS011;4449;50.872;4.714;2023-11-19T13:37:04;18.02;;;4.55;;
8825;SDS011;4449;50.872;4.714;2023-11-19T13:39:32;15.25;;;5.03;;
8825;SDS011;4449;50.872;4.714;2023-11-19T13:42:00;16.23;;;4.80;;
8825;SDS011;4449;50.872;4.714;2023-11-19T13:44:29;15.48;;;4.75;;
8825;SDS011;4449;50.872;4.714;2023-11-19T13:46:57;13.82;;;4.60;;
8825;SDS011;4449;50.872;4.714;2023-11-19T13:49:24;17.10;;;5.03;;
8825;SDS011;4449;50.872;4.714;2023-11-19T13:51:53;16.55;;;4.65;;
8825;SDS011;4449;50.872;4.714;2023-11-19T13:54:20;16.00;;;4.77;;
8825;SDS011;4449;50.872;4.714;2023-11-19T13:56:48;14.60;;;5.50;;
8825;SDS011;4449;50.872;4.714;2023-11-19T13:59:19;17.08;;;5.20;;
8825;SDS011;4449;50.872;4.714;2023-11-19T14:01:48;15.55;;;4.90;;
8825;SDS011;4449;50.872;4.714;2023-11-19T14:04:16;14.85;;;5.07;;
8825;SDS011;4449;50.872;4.714;2023-11-19T14:06:44;18.97;;;5.60;;
8825;SDS011;4449;50.872;4.714;2023-11-19T14:09:12;18.27;;;5.53;;
8825;SDS011;4449;50.872;4.714;2023-11-19T14:11:40;18.95;;;5.35;;
8825;SDS011;4449;50.872;4.714;2023-11-19T14:14:08;17.23;;;5.13;;
8825;SDS011;4449;50.872;4.714;2023-11-19T14:16:36;20.70;;;5.78;;
8825;SDS011;4449;50.872;4.714;2023-11-19T14:19:06;18.35;;;5.60;;
8825;SDS011;4449;50.872;4.714;2023-11-19T14:21:33;22.48;;;5.68;;
8825;SDS011;4449;50.872;4.714;2023-11-19T14:24:01;18.83;;;6.07;;
8825;SDS011;4449;50.872;4.714;2023-11-19T14:26:29;16.92;;;4.93;;
8825;SDS011;4449;50.872;4.714;2023-11-19T14:28:56;22.98;;;5.93;;
8825;SDS011;4449;50.872;4.714;2023-11-19T14:31:27;18.92;;;5.43;;
8825;SDS011;4449;50.872;4.714;2023-11-19T14:33:55;19.65;;;6.18;;
8825;SDS011;4449;50.872;4.714;2023-11-19T14:36:24;16.73;;;5.40;;
8825;SDS011;4449;50.872;4.714;2023-11-19T14:38:52;17.67;;;5.35;;
8825;SDS011;4449;50.872;4.714;2023-11-19T14:41:19;19.33;;;5.38;;
8825;SDS011;4449;50.872;4.714;2023-11-19T14:43:47;22.23;;;4.95;;
8825;SDS011;4449;50.872;4.714;2023-11-19T14:46:15;18.88;;;5.72;;
8825;SDS011;4449;50.872;4.714;2023-11-19T14:48:43;25.88;;;6.32;;
8825;SDS011;4449;50.872;4.714;2023-11-19T14:51:11;20.02;;;5.95;;
8825;SDS011;4449;50.872;4.714;2023-11-19T14:53:40;20.42;;;5.78;;
8825;SDS011;4449;50.872;4.714;2023-11-19T14:56:10;21.30;;;5.57;;
8825;SDS011;4449;50.872;4.714;2023-11-19T14:58:38;21.35;;;5.82;;
8825;SDS011;4449;50.872;4.714;2023-11-19T15:01:06;16.92;;;6.03;;
8825;SDS011;4449;50.872;4.714;2023-11-19T15:03:34;20.65;;;6.50;;
8825;SDS011;4449;50.872;4.714;2023-11-19T15:06:01;20.75;;;5.75;;
8825;SDS011;4449;50.872;4.714;2023-11-19T15:08:29;22.40;;;6.00;;
8825;SDS011;4449;50.872;4.714;2023-11-19T15:10:58;22.55;;;6.65;;
8825;SDS011;4449;50.872;4.714;2023-11-19T15:13:27;18.48;;;5.53;;
8825;SDS011;4449;50.872;4.714;2023-11-19T15:15:55;20.13;;;6.23;;
8825;SDS011;4449;50.872;4.714;2023-11-19T15:18:22;20.85;;;5.97;;
8825;SDS011;4449;50.872;4.714;2023-11-19T15:20:50;20.63;;;6.32;;
8825;SDS011;4449;50.872;4.714;2023-11-19T15:23:18;23.92;;;6.25;;
8825;SDS011;4449;50.872;4.714;2023-11-19T15:25:46;20.05;;;5.85;;
8825;SDS011;4449;50.872;4.714;2023-11-19T15:28:15;20.83;;;5.97;;
8825;SDS011;4449;50.872;4.714;2023-11-19T15:30:44;21.42;;;5.93;;
8825;SDS011;4449;50.872;4.714;2023-11-19T15:33:12;22.27;;;5.65;;
8825;SDS011;4449;50.872;4.714;2023-11-19T15:50:29;21.92;;;6.00;;
8825;SDS011;4449;50.872;4.714;2023-11-19T15:52:57;21.55;;;5.88;;
8825;SDS011;4449;50.872;4.714;2023-11-19T15:55:27;24.65;;;6.32;;
8825;SDS011;4449;50.872;4.714;2023-11-19T15:57:54;16.75;;;5.75;;
8825;SDS011;4449;50.872;4.714;2023-11-19T16:00:22;19.05;;;5.68;;
8825;SDS011;4449;50.872;4.714;2023-11-19T16:02:51;17.37;;;5.50;;
8825;SDS011;4449;50.872;4.714;2023-11-19T16:05:19;20.77;;;6.03;;
8825;SDS011;4449;50.872;4.714;2023-11-19T16:07:48;17.00;;;5.38;;
8825;SDS011;4449;50.872;4.714;2023-11-19T16:10:16;18.67;;;6.07;;
8825;SDS011;4449;50.872;4.714;2023-11-19T16:12:45;21.38;;;6.22;;
8825;SDS011;4449;50.872;4.714;2023-11-19T16:15:13;19.08;;;5.50;;
8825;SDS011;4449;50.872;4.714;2023-11-19T16:17:41;15.85;;;5.28;;
8825;SDS011;4449;50.872;4.714;2023-11-19T16:20:10;14.17;;;4.30;;
8825;SDS011;4449;50.872;4.714;2023-11-19T16:22:37;14.15;;;4.45;;
8825;SDS011;4449;50.872;4.714;2023-11-19T16:25:06;15.17;;;5.03;;
8825;SDS011;4449;50.872;4.714;2023-11-19T16:27:34;13.68;;;4.85;;
8825;SDS011;4449;50.872;4.714;2023-11-19T16:30:05;16.63;;;5.65;;
8825;SDS011;4449;50.872;4.714;2023-11-19T16:32:33;15.13;;;4.60;;
8825;SDS011;4449;50.872;4.714;2023-11-19T16:35:03;17.17;;;5.15;;
8825;SDS011;4449;50.872;4.714;2023-11-19T16:37:31;13.68;;;4.68;;
8825;SDS011;4449;50.872;4.714;2023-11-19T16:39:59;16.83;;;5.05;;